METAR Data
IDs: Format: Raw Decoded Include TAF

Data at: 0821 UTC 19 Apr 2019

METAR for:KIAH (Houston/Bush Intl, TX, US)
Text:KIAH 190753Z 29006KT 10SM SCT160 15/10 A2993 RMK AO2 SLP133 T01500100
Temperature: 15.0°C ( 59°F)
Dewpoint: 10.0°C ( 50°F) [RH = 72%]
Pressure (altimeter):29.93 inches Hg (1013.6 mb) [Sea level pressure: 1013.3 mb]
Winds:from the WNW (290 degrees) at 7 MPH (6 knots; 3.1 m/s)
Visibility:10 or more sm (16+ km)
Ceiling:at least 12,000 feet AGL
Clouds: scattered clouds at 16000 feet AGL

METAR for:KHOU (Houston/Hobby Arpt, TX, US)
Text:KHOU 190753Z 29007KT 10SM SCT140 15/08 A2992 RMK AO2 SLP137 T01500083
Temperature: 15.0°C ( 59°F)
Dewpoint: 8.3°C ( 47°F) [RH = 64%]
Pressure (altimeter):29.92 inches Hg (1013.3 mb) [Sea level pressure: 1013.7 mb]
Winds:from the WNW (290 degrees) at 8 MPH (7 knots; 3.6 m/s)
Visibility:10 or more sm (16+ km)
Ceiling:at least 12,000 feet AGL
Clouds: scattered clouds at 14000 feet AGL

METAR for:KGLS (Galveston/Scholes In, TX, US)
Text:KGLS 190752Z AUTO 28013KT 10SM CLR 17/11 A2991 RMK AO2 SLP129 T01670106
Temperature: 16.7°C ( 62°F)
Dewpoint: 10.6°C ( 51°F) [RH = 67%]
Pressure (altimeter):29.91 inches Hg (1013.0 mb) [Sea level pressure: 1012.9 mb]
Winds:from the W (280 degrees) at 15 MPH (13 knots; 6.7 m/s)
Visibility:10 or more sm (16+ km)
Ceiling:at least 12,000 feet AGL
Clouds:sky clear below 12,000 feet AGL
QC Flag:automated observation with no human augmentation

METAR for:KLVJ (Houston/Pearland Rgn, TX, US)
Text:KLVJ 190753Z AUTO 29005KT 10SM CLR 14/10 A2994 RMK AO2 SLP136 T01440100
Temperature: 14.4°C ( 58°F)
Dewpoint: 10.0°C ( 50°F) [RH = 75%]
Pressure (altimeter):29.94 inches Hg (1014.0 mb) [Sea level pressure: 1013.6 mb]
Winds:from the WNW (290 degrees) at 6 MPH (5 knots; 2.6 m/s)
Visibility:10 or more sm (16+ km)
Ceiling:at least 12,000 feet AGL
Clouds:sky clear below 12,000 feet AGL
QC Flag:automated observation with no human augmentation

METAR for:KSGR (Houston/Sugar Land R, TX, US)
Text:KSGR 190753Z AUTO 26008KT 10SM CLR 14/10 A2993 RMK AO2 SLP137 T01390100
Temperature: 13.9°C ( 57°F)
Dewpoint: 10.0°C ( 50°F) [RH = 77%]
Pressure (altimeter):29.93 inches Hg (1013.6 mb) [Sea level pressure: 1013.7 mb]
Winds:from the W (260 degrees) at 9 MPH (8 knots; 4.1 m/s)
Visibility:10 or more sm (16+ km)
Ceiling:at least 12,000 feet AGL
Clouds:sky clear below 12,000 feet AGL
QC Flag:automated observation with no human augmentation

METAR for:KDWH (Houston/Hooks Mem, TX, US)
Text:KDWH 190753Z AUTO 29005KT 10SM CLR 14/09 A2993 RMK AO2 SLP135 T01390094
Temperature: 13.9°C ( 57°F)
Dewpoint: 9.4°C ( 49°F) [RH = 74%]
Pressure (altimeter):29.93 inches Hg (1013.6 mb) [Sea level pressure: 1013.5 mb]
Winds:from the WNW (290 degrees) at 6 MPH (5 knots; 2.6 m/s)
Visibility:10 or more sm (16+ km)
Ceiling:at least 12,000 feet AGL
Clouds:sky clear below 12,000 feet AGL
QC Flag:automated observation with no human augmentation

METAR for:KCLL (College Station/East, TX, US)
Text:KCLL 190753Z AUTO 32006KT 10SM CLR 13/09 A2996 RMK AO2 SLP142 T01330094
Temperature: 13.3°C ( 56°F)
Dewpoint: 9.4°C ( 49°F) [RH = 77%]
Pressure (altimeter):29.96 inches Hg (1014.6 mb) [Sea level pressure: 1014.2 mb]
Winds:from the NW (320 degrees) at 7 MPH (6 knots; 3.1 m/s)
Visibility:10 or more sm (16+ km)
Ceiling:at least 12,000 feet AGL
Clouds:sky clear below 12,000 feet AGL
QC Flag:automated observation with no human augmentation

METAR for:KUTS (Huntsville Muni, TX, US)
Text:KUTS 190753Z AUTO 29004KT 10SM CLR 13/08 A2993 RMK AO2 SLP131 T01330083
Temperature: 13.3°C ( 56°F)
Dewpoint: 8.3°C ( 47°F) [RH = 72%]
Pressure (altimeter):29.93 inches Hg (1013.6 mb) [Sea level pressure: 1013.1 mb]
Winds:from the WNW (290 degrees) at 5 MPH (4 knots; 2.1 m/s)
Visibility:10 or more sm (16+ km)
Ceiling:at least 12,000 feet AGL
Clouds:sky clear below 12,000 feet AGL
QC Flag:automated observation with no human augmentation

METAR for:KCXO (Conroe/Executive Arp, TX, US)
Text:KCXO 190753Z AUTO 33005KT 10SM CLR 11/09 A2993 RMK AO2 SLP131 T01110094
Temperature: 11.1°C ( 52°F)
Dewpoint: 9.4°C ( 49°F) [RH = 89%]
Pressure (altimeter):29.93 inches Hg (1013.6 mb) [Sea level pressure: 1013.1 mb]
Winds:from the NNW (330 degrees) at 6 MPH (5 knots; 2.6 m/s)
Visibility:10 or more sm (16+ km)
Ceiling:at least 12,000 feet AGL
Clouds:sky clear below 12,000 feet AGL
QC Flag:automated observation with no human augmentation

METAR for:KLBX (Angleton/Texas Gulf, TX, US)
Text:KLBX 190753Z AUTO 28003KT 10SM CLR 14/09 A2994 RMK AO2 SLP138 T01390089
Temperature: 13.9°C ( 57°F)
Dewpoint: 8.9°C ( 48°F) [RH = 72%]
Pressure (altimeter):29.94 inches Hg (1014.0 mb) [Sea level pressure: 1013.8 mb]
Winds:from the W (280 degrees) at 3 MPH (3 knots; 1.5 m/s)
Visibility:10 or more sm (16+ km)
Ceiling:at least 12,000 feet AGL
Clouds:sky clear below 12,000 feet AGL
QC Flag:automated observation with no human augmentation

METAR for:KPSX (Palacios Muni, TX, US)
Text:KPSX 190753Z AUTO 29007KT 10SM CLR 14/12 A2996 RMK AO2 SLP146 T01440122
Temperature: 14.4°C ( 58°F)
Dewpoint: 12.2°C ( 54°F) [RH = 87%]
Pressure (altimeter):29.96 inches Hg (1014.6 mb) [Sea level pressure: 1014.6 mb]
Winds:from the WNW (290 degrees) at 8 MPH (7 knots; 3.6 m/s)
Visibility:10 or more sm (16+ km)
Ceiling:at least 12,000 feet AGL
Clouds:sky clear below 12,000 feet AGL
QC Flag:automated observation with no human augmentation